KSAVKSSI

Guest
Details From KSAV - Savannah Hilton Head Intl
To KSSI - MALCOLM MCKINNON
Flight Number -
Tags generated
Created
Modified
Stats Distance 59 nm / 110 km
Max Altitude 4,000 ft / 1,219 m
Waypoints 3
Social Downloads 1
Likes 0
Share VATSIM

Download

Looking for another format? Having issues loading an existing format? Contact us
Advertisement - Login to hide

Notes

Basic altitude profile: - Ascent Rate: 1500ft/min - Ascent Speed: 90kts - Cruise Altitude: 6500ft - Cruise Speed: 110kts - Descent Rate: 1500ft/min - Descent Speed: 100kts Options: - Use NATs: yes - Use PACOTS: no - Use low airways: yes - Use high airways: no

Route

KSAV BROUN KSSI

ID Type Via Altitude Latitude Longitude Leg Dist Tot Dist Heading (true) Name
O KSAV APT - 0 ft / 0 m 32.12740˚ -81.20188˚ - 0 nm - Savannah Hilton Head Intl
BROUN FIX - 4,000 ft / 1,219 m 31.46009˚ -81.32387˚ 40 nm 40 nm 189° / 189° -
O KSSI APT - 0 ft / 0 m 31.15187˚ -81.39026˚ 18 nm 59 nm 190° / 190° MALCOLM MCKINNON

Altitude Profile

Advertisement - Login to hide

KSAV

Details ICAO KSAV (SAV)
Name Savannah Hilton Head Intl
Region United States
Timezone America/New_York (UTC-4.0)
Stats Elevation 51 ft / 16 m (AMSL)
Location 32.127403° -81.201878°
Runways 2
Magnetic Variation 7.060° W

METAR

KSAV 261753Z COR 16010KT 10SM SCT035 SCT085 BKN250 28/23 A2998 RMK AO2 LTG DSNT S CB DSNT S TSE04 SLP151 60010 T02830228 10283 20239 58010

Decode

TAF

TAF KSAV 261722Z 2618/2718 16010KT P6SM VCTS SCT030CB BKN120 FM262000 16011KT P6SM SCT035 BKN080 FM270300 15005KT P6SM BKN120 FM271200 11011KT P6SM -SHRA OVC025

Decode

Departure Runways

ID Width Length Bearing (true) Bearing (mag) Surface Threshold Offset Overrun Length
01 150 ft / 46 m 7,024 ft / 2,141 m 359.63° 6.69° Concrete 0 ft / 0 m 0 ft / 0 m
10 150 ft / 46 m 9,334 ft / 2,845 m 90.61° 97.67° Concrete 0 ft / 0 m 1,000 ft / 305 m
19 150 ft / 46 m 7,024 ft / 2,141 m 179.63° 186.69° Concrete 0 ft / 0 m 0 ft / 0 m
28 150 ft / 46 m 9,334 ft / 2,845 m 270.63° 277.69° Concrete 0 ft / 0 m 150 ft / 46 m

KSSI

Details ICAO KSSI (SSI)
Name MALCOLM MCKINNON
Region United States
Timezone America/New_York (UTC-4.0)
Stats Elevation 19 ft / 6 m (AMSL)
Location 31.151867° -81.390263°
Runways 2
Magnetic Variation 6.792° W

METAR

KSSI 261821Z AUTO 15009KT 10SM BKN018 BKN025 28/23 A2997 RMK AO2 T02830233

Decode

TAF

TAF KSSI 261720Z 2618/2718 12012G16KT P6SM BKN250 FM271200 09012G16KT P6SM VCTS SCT025CB BKN050 OVC120 PROB30 2712/2718 5SM -TSRA BKN025CB

Decode

Destination Runways

ID Width Length Bearing (true) Bearing (mag) Surface Threshold Offset Overrun Length
04 100 ft / 30 m 5,808 ft / 1,770 m 35.96° 42.75° Asphalt 1,000 ft / 305 m 0 ft / 0 m
16 75 ft / 23 m 3,320 ft / 1,012 m 154.23° 161.02° Asphalt 0 ft / 0 m 0 ft / 0 m
22 100 ft / 30 m 5,808 ft / 1,770 m 215.97° 222.76° Asphalt 910 ft / 277 m 0 ft / 0 m
34 75 ft / 23 m 3,320 ft / 1,012 m 334.23° 341.02° Asphalt 0 ft / 0 m 233 ft / 71 m

Popular Alternatives